createdAt,value
2018-03-14T00:01:56.085Z,8.31
2018-03-14T00:04:24.265Z,8.29
2018-03-14T00:06:52.465Z,8.30
2018-03-14T00:09:20.663Z,8.25
2018-03-14T00:11:48.848Z,8.24
2018-03-14T00:14:17.027Z,8.14
2018-03-14T00:16:45.216Z,8.10
2018-03-14T00:19:13.384Z,8.07
2018-03-14T00:21:41.558Z,8.11
2018-03-14T00:24:09.737Z,8.13
2018-03-14T00:26:37.925Z,8.09
2018-03-14T00:29:06.103Z,8.13
2018-03-14T00:31:34.281Z,8.10
2018-03-14T00:34:02.475Z,8.09
2018-03-14T00:36:30.645Z,8.04
2018-03-14T00:38:58.835Z,8.03
2018-03-14T00:41:27.012Z,8.05
2018-03-14T00:43:55.948Z,8.06
2018-03-14T00:46:24.129Z,8.06
2018-03-14T00:48:52.315Z,7.99
2018-03-14T00:51:21.274Z,8.00
2018-03-14T00:53:49.454Z,7.99
2018-03-14T00:56:17.630Z,7.99
2018-03-14T00:58:45.807Z,8.02
2018-03-14T01:01:13.990Z,8.02
2018-03-14T01:03:42.183Z,8.04
2018-03-14T01:06:10.364Z,8.00
2018-03-14T01:08:38.553Z,7.94
2018-03-14T01:11:06.738Z,7.88
2018-03-14T01:13:34.917Z,7.88
2018-03-14T01:16:03.861Z,7.84
2018-03-14T01:18:32.076Z,7.77
2018-03-14T01:21:00.255Z,7.76
2018-03-14T01:23:28.435Z,7.71
2018-03-14T01:25:56.607Z,7.74
2018-03-14T01:28:25.555Z,7.73
2018-03-14T01:30:53.740Z,7.72
2018-03-14T01:33:21.922Z,7.67
2018-03-14T01:35:50.110Z,7.63
2018-03-14T01:38:18.318Z,7.56
2018-03-14T01:40:47.259Z,7.53
2018-03-14T01:43:15.452Z,7.53
2018-03-14T01:45:43.627Z,7.51
2018-03-14T01:48:11.827Z,7.52
2018-03-14T01:50:40.774Z,7.45
2018-03-14T01:53:26.746Z,7.46
2018-03-14T01:55:54.950Z,7.41
2018-03-14T01:58:23.134Z,7.43
2018-03-14T02:00:51.317Z,7.39
2018-03-14T02:03:19.511Z,7.38
2018-03-14T02:05:48.445Z,7.38
2018-03-14T02:08:16.632Z,7.38
2018-03-14T02:10:44.808Z,7.36
2018-03-14T02:13:12.994Z,7.37
2018-03-14T02:15:41.191Z,7.35
2018-03-14T02:18:09.379Z,7.29
2018-03-14T02:20:38.326Z,7.29
2018-03-14T02:23:06.521Z,7.28
2018-03-14T02:25:34.710Z,7.24
2018-03-14T02:28:03.674Z,7.21
2018-03-14T02:30:31.903Z,7.21
2018-03-14T02:33:00.098Z,7.18
2018-03-14T02:35:28.274Z,7.13
2018-03-14T02:37:56.450Z,7.09
2018-03-14T02:40:24.654Z,7.11
2018-03-14T02:42:52.838Z,7.15
2018-03-14T02:45:21.026Z,7.08
2018-03-14T02:47:49.193Z,7.03
2018-03-14T02:50:17.355Z,6.97
2018-03-14T02:52:45.514Z,6.93
2018-03-14T02:55:13.701Z,6.92
2018-03-14T02:57:42.688Z,6.93
2018-03-14T03:00:10.857Z,6.86
2018-03-14T03:02:39.015Z,6.81
2018-03-14T03:05:07.184Z,6.74
2018-03-14T03:07:35.379Z,6.67
2018-03-14T03:10:03.542Z,6.64
2018-03-14T03:12:31.702Z,6.68
2018-03-14T03:15:00.622Z,6.77
2018-03-14T03:17:28.777Z,6.81
2018-03-14T03:19:56.941Z,6.84
2018-03-14T03:22:25.862Z,6.86
2018-03-14T03:24:54.061Z,6.89
2018-03-14T03:27:22.222Z,6.91
2018-03-14T03:29:50.391Z,7.01
2018-03-14T03:32:18.561Z,6.98
2018-03-14T03:34:46.723Z,6.99
2018-03-14T03:37:14.878Z,6.96
2018-03-14T03:39:43.088Z,6.94
2018-03-14T03:42:11.250Z,6.91
2018-03-14T03:44:39.411Z,6.87
2018-03-14T03:47:07.568Z,6.83
2018-03-14T03:49:36.519Z,6.82
2018-03-14T03:52:04.706Z,6.80
2018-03-14T03:54:32.876Z,6.82
2018-03-14T03:57:01.039Z,6.83
2018-03-14T03:59:29.246Z,6.82
2018-03-14T04:01:57.439Z,6.82
2018-03-14T04:04:26.366Z,6.83
2018-03-14T04:06:54.540Z,6.83
2018-03-14T04:09:22.716Z,6.85
2018-03-14T04:11:50.873Z,6.83
2018-03-14T04:14:19.042Z,6.82
2018-03-14T04:16:47.204Z,6.84
2018-03-14T04:19:16.140Z,6.79
2018-03-14T04:21:44.301Z,6.74
2018-03-14T04:24:12.464Z,6.70
2018-03-14T04:26:40.638Z,6.66
2018-03-14T04:29:08.805Z,6.60
2018-03-14T04:31:36.962Z,6.61
2018-03-14T04:34:05.892Z,6.57
2018-03-14T04:36:34.086Z,6.56
2018-03-14T04:39:02.264Z,6.63
2018-03-14T04:41:30.444Z,6.57
2018-03-14T04:43:58.633Z,6.54
2018-03-14T04:46:26.812Z,6.53
2018-03-14T04:48:54.987Z,6.61
2018-03-14T04:51:23.215Z,6.53
2018-03-14T04:53:51.398Z,6.49
2018-03-14T04:56:19.609Z,6.47
2018-03-14T04:58:48.546Z,6.47
2018-03-14T05:01:16.714Z,6.47
2018-03-14T05:03:44.878Z,6.45
2018-03-14T05:06:13.081Z,6.46
2018-03-14T05:08:41.258Z,6.42
2018-03-14T05:11:09.439Z,6.44
2018-03-14T05:13:37.618Z,6.44
2018-03-14T05:16:05.793Z,6.45
2018-03-14T05:18:33.965Z,6.43
2018-03-14T05:21:02.133Z,6.53
2018-03-14T05:23:30.332Z,6.44
2018-03-14T05:25:58.503Z,6.43
2018-03-14T05:28:26.670Z,6.43
2018-03-14T05:30:54.850Z,6.45
2018-03-14T05:33:23.033Z,6.53
2018-03-14T05:35:51.218Z,6.57
2018-03-14T05:38:19.420Z,6.62
2018-03-14T05:40:48.347Z,6.62
2018-03-14T05:43:16.519Z,6.69
2018-03-14T05:45:44.689Z,6.75
2018-03-14T05:48:12.850Z,6.78
2018-03-14T05:50:41.022Z,6.85
2018-03-14T05:53:09.196Z,6.89
2018-03-14T05:55:37.374Z,6.90
2018-03-14T05:58:05.536Z,6.92
2018-03-14T06:00:33.710Z,6.98
2018-03-14T06:03:01.886Z,7.01
2018-03-14T06:05:30.068Z,7.08
2018-03-14T06:07:58.246Z,7.20
2018-03-14T06:10:26.412Z,7.21
2018-03-14T06:12:54.613Z,7.26
2018-03-14T06:15:22.785Z,7.34
2018-03-14T06:17:50.955Z,7.47
2018-03-14T06:20:19.111Z,7.46
2018-03-14T06:22:47.282Z,7.56
2018-03-14T06:25:15.464Z,7.67
2018-03-14T06:27:43.644Z,7.76
2018-03-14T06:30:11.819Z,7.81
2018-03-14T06:32:40.037Z,7.91
2018-03-14T06:35:08.203Z,8.00
2018-03-14T06:37:36.366Z,8.08
2018-03-14T06:40:04.539Z,8.08
2018-03-14T06:42:32.715Z,8.13
2018-03-14T06:45:00.949Z,8.15
2018-03-14T06:47:29.886Z,8.15
2018-03-14T06:49:58.047Z,8.15
2018-03-14T06:52:26.220Z,8.15
2018-03-14T06:54:54.411Z,8.15
2018-03-14T06:57:22.575Z,8.19
2018-03-14T07:00:08.675Z,8.15
2018-03-14T07:03:04.489Z,8.13
2018-03-14T07:05:50.607Z,8.11
2018-03-14T07:08:18.801Z,8.12
2018-03-14T07:10:46.974Z,8.16
2018-03-14T07:13:15.145Z,8.20
2018-03-14T07:15:43.306Z,8.26
2018-03-14T07:18:11.488Z,8.41
2018-03-14T07:20:39.656Z,8.51
2018-03-14T07:23:07.817Z,8.86
2018-03-14T07:25:35.989Z,8.87
2018-03-14T07:28:04.150Z,8.91
2018-03-14T07:30:32.310Z,9.14
2018-03-14T07:33:00.511Z,9.09
2018-03-14T07:35:28.680Z,9.14
2018-03-14T07:37:56.845Z,9.23
2018-03-14T07:40:25.044Z,9.37
2018-03-14T07:42:53.209Z,9.40
2018-03-14T07:45:21.411Z,9.47
2018-03-14T07:47:49.607Z,9.67
2018-03-14T07:50:18.544Z,9.85
2018-03-14T07:52:46.713Z,10.18
2018-03-14T07:55:14.874Z,10.43
2018-03-14T07:57:43.054Z,10.73
2018-03-14T08:00:11.222Z,10.96
2018-03-14T08:02:39.396Z,11.24
2018-03-14T08:05:07.572Z,11.55
2018-03-14T08:07:35.747Z,11.85
2018-03-14T08:10:03.942Z,12.01
2018-03-14T08:12:32.123Z,12.33
2018-03-14T08:15:00.301Z,12.41
2018-03-14T08:17:28.483Z,12.60
2018-03-14T08:19:56.653Z,12.79
2018-03-14T08:22:24.841Z,12.93
2018-03-14T08:24:53.031Z,13.12
2018-03-14T08:27:21.211Z,13.13
2018-03-14T08:29:50.165Z,13.18
2018-03-14T08:32:18.345Z,13.10
2018-03-14T08:34:46.514Z,13.01
2018-03-14T08:37:14.700Z,13.11
2018-03-14T08:39:42.928Z,13.24
2018-03-14T08:42:11.897Z,13.45
2018-03-14T08:44:40.075Z,13.57
2018-03-14T08:47:09.031Z,13.65
2018-03-14T08:49:37.202Z,13.72
2018-03-14T08:52:05.366Z,13.75
2018-03-14T08:54:34.073Z,13.84
2018-03-14T08:57:02.280Z,13.85
2018-03-14T08:59:31.285Z,13.97
2018-03-14T09:01:59.434Z,13.95
2018-03-14T09:04:27.643Z,13.95
2018-03-14T09:06:55.837Z,13.98
2018-03-14T09:09:24.011Z,13.96
2018-03-14T09:11:52.193Z,14.07
2018-03-14T09:14:20.369Z,14.22
2018-03-14T09:16:48.550Z,14.21
2018-03-14T09:19:16.717Z,14.36
2018-03-14T09:21:44.879Z,14.52
2018-03-14T09:24:13.064Z,14.71
2018-03-14T09:26:41.235Z,14.92
2018-03-14T09:29:09.402Z,15.06
2018-03-14T09:31:37.653Z,15.02
2018-03-14T09:34:06.613Z,14.92
2018-03-14T09:36:34.779Z,15.10
2018-03-14T09:39:02.982Z,15.14
2018-03-14T09:41:31.157Z,15.16
2018-03-14T09:43:59.329Z,15.30
2018-03-14T09:46:27.522Z,15.50
2018-03-14T09:48:56.463Z,15.67
2018-03-14T09:51:24.687Z,15.78
2018-03-14T09:53:52.861Z,15.85
2018-03-14T09:56:21.798Z,15.59
2018-03-14T09:58:50.064Z,15.36
2018-03-14T10:01:18.235Z,15.36
2018-03-14T10:03:46.404Z,15.50
2018-03-14T10:06:14.571Z,15.75
2018-03-14T10:08:42.734Z,15.69
2018-03-14T10:11:11.661Z,15.60
2018-03-14T10:13:39.831Z,15.83
2018-03-14T10:16:08.002Z,16.36
2018-03-14T10:18:36.181Z,17.05
2018-03-14T10:21:04.353Z,17.83
2018-03-14T10:23:32.515Z,18.62
2018-03-14T10:26:00.685Z,18.82
2018-03-14T10:28:28.887Z,19.42
2018-03-14T10:30:57.074Z,20.17
2018-03-14T10:33:25.238Z,20.22
2018-03-14T10:35:53.419Z,20.00
2018-03-14T10:38:21.578Z,19.12
2018-03-14T10:40:49.834Z,18.75
2018-03-14T10:43:18.743Z,18.58
2018-03-14T10:45:46.913Z,18.38
2018-03-14T10:48:15.089Z,18.50
2018-03-14T10:50:43.266Z,18.68
2018-03-14T10:53:11.430Z,18.79
2018-03-14T10:55:39.611Z,18.79
2018-03-14T10:58:07.771Z,18.66
2018-03-14T11:00:41.447Z,18.80
2018-03-14T11:03:15.902Z,18.66
2018-03-14T11:05:44.066Z,18.99
2018-03-14T11:08:12.243Z,19.13
2018-03-14T11:10:40.559Z,19.11
2018-03-14T11:13:08.723Z,19.11
2018-03-14T11:15:36.949Z,19.17
2018-03-14T11:18:05.111Z,19.49
2018-03-14T11:20:34.329Z,19.58
2018-03-14T11:23:03.282Z,19.21
2018-03-14T11:25:32.267Z,19.18
2018-03-14T11:28:00.456Z,19.45
2018-03-14T11:30:28.647Z,20.35
2018-03-14T11:32:57.615Z,21.40
2018-03-14T11:35:25.778Z,21.77
2018-03-14T11:37:53.942Z,22.15
2018-03-14T11:40:22.119Z,23.33
2018-03-14T11:42:50.338Z,23.51
2018-03-14T11:45:18.531Z,23.26
2018-03-14T11:47:47.461Z,22.68
2018-03-14T11:50:15.683Z,23.20
2018-03-14T11:52:43.882Z,22.65
2018-03-14T11:55:12.816Z,21.35
2018-03-14T11:57:40.977Z,20.72
2018-03-14T12:00:09.138Z,20.06
2018-03-14T12:02:37.326Z,19.58
2018-03-14T12:05:05.486Z,19.22
2018-03-14T12:07:33.687Z,18.79
2018-03-14T12:10:01.867Z,18.65
2018-03-14T12:12:30.029Z,18.66
2018-03-14T12:14:58.199Z,18.64
2018-03-14T12:17:27.382Z,18.54
2018-03-14T12:19:55.543Z,18.68
2018-03-14T12:22:30.041Z,18.62
2018-03-14T12:24:58.209Z,18.63
2018-03-14T12:27:27.545Z,18.69
2018-03-14T12:29:55.748Z,18.70
2018-03-14T12:32:23.893Z,18.62
2018-03-14T12:34:52.092Z,18.14
2018-03-14T12:37:20.278Z,17.48
2018-03-14T12:39:48.443Z,17.23
2018-03-14T12:42:16.669Z,16.96
2018-03-14T12:44:44.803Z,16.69
2018-03-14T12:47:12.969Z,16.48
2018-03-14T12:49:41.155Z,16.38
2018-03-14T12:52:09.325Z,16.13
2018-03-14T12:54:37.490Z,15.85
2018-03-14T12:57:05.650Z,15.66
2018-03-14T12:59:33.817Z,15.54
2018-03-14T13:02:02.072Z,15.44
2018-03-14T13:04:30.244Z,15.41
2018-03-14T13:06:59.179Z,15.59
2018-03-14T13:09:27.343Z,15.81
2018-03-14T13:11:55.503Z,16.06
2018-03-14T13:14:23.675Z,16.36
2018-03-14T13:16:52.639Z,17.28
2018-03-14T13:19:20.822Z,17.84
2018-03-14T13:21:49.773Z,17.92
2018-03-14T13:24:18.704Z,17.79
2018-03-14T13:26:46.881Z,18.19
2018-03-14T13:29:15.059Z,18.16
2018-03-14T13:31:43.990Z,18.22
2018-03-14T13:34:12.159Z,18.26
2018-03-14T13:36:40.322Z,18.47
2018-03-14T13:39:08.497Z,19.21
2018-03-14T13:41:36.671Z,19.31
2018-03-14T13:44:04.830Z,19.89
2018-03-14T13:46:33.759Z,19.85
2018-03-14T13:49:01.936Z,20.04
2018-03-14T13:51:30.110Z,20.14
2018-03-14T13:53:58.283Z,22.25
2018-03-14T13:56:26.471Z,26.58
2018-03-14T13:58:54.680Z,27.64
2018-03-14T14:01:22.853Z,26.08
2018-03-14T14:03:51.048Z,24.18
2018-03-14T14:06:19.986Z,22.91
2018-03-14T14:08:48.162Z,21.80
2018-03-14T14:11:16.333Z,21.36
2018-03-14T14:13:44.507Z,20.92
2018-03-14T14:16:12.689Z,20.64
2018-03-14T14:18:40.847Z,21.34
2018-03-14T14:21:09.010Z,25.43
2018-03-14T14:23:37.180Z,29.58
2018-03-14T14:26:05.354Z,32.64
2018-03-14T14:28:33.514Z,34.88
2018-03-14T14:31:02.454Z,37.26
2018-03-14T14:33:30.644Z,37.79
2018-03-14T14:35:58.811Z,35.40
2018-03-14T14:38:29.033Z,31.43
2018-03-14T14:40:57.198Z,27.79
2018-03-14T14:43:25.704Z,25.28
2018-03-14T14:45:53.894Z,23.21
2018-03-14T14:48:22.841Z,21.76
2018-03-14T14:50:51.008Z,20.45
2018-03-14T14:53:19.229Z,19.53
2018-03-14T14:55:47.418Z,18.53
2018-03-14T14:58:16.373Z,18.09
2018-03-14T15:00:44.550Z,17.71
2018-03-14T15:03:12.707Z,17.72
2018-03-14T15:05:40.878Z,17.26
2018-03-14T15:08:09.054Z,16.77
2018-03-14T15:10:37.259Z,16.55
2018-03-14T15:13:05.435Z,16.30
2018-03-14T15:15:33.605Z,16.18
2018-03-14T15:18:01.780Z,15.91
2018-03-14T15:20:30.003Z,15.75
2018-03-14T15:22:58.205Z,15.49
2018-03-14T15:25:26.374Z,15.30
2018-03-14T15:27:54.581Z,15.24
2018-03-14T15:30:22.731Z,15.14
2018-03-14T15:32:50.903Z,15.08
2018-03-14T15:35:19.090Z,14.84
2018-03-14T15:37:47.255Z,14.71
2018-03-14T15:40:15.431Z,14.52
2018-03-14T15:42:43.599Z,14.48
2018-03-14T15:45:11.777Z,14.45
2018-03-14T15:47:39.982Z,14.43
2018-03-14T15:50:08.225Z,14.47
2018-03-14T15:52:36.419Z,14.41
2018-03-14T15:55:04.651Z,14.37
2018-03-14T15:57:32.852Z,14.29
2018-03-14T16:00:01.029Z,14.20
2018-03-14T16:02:29.334Z,14.19
2018-03-14T16:04:57.511Z,14.08
2018-03-14T16:07:25.684Z,14.06
2018-03-14T16:09:53.890Z,13.97
2018-03-14T16:12:22.858Z,13.91
2018-03-14T16:14:51.041Z,13.92
2018-03-14T16:17:20.022Z,13.93
2018-03-14T16:19:48.161Z,13.82
2018-03-14T16:22:16.329Z,13.79
2018-03-14T16:24:44.530Z,13.71
2018-03-14T16:27:12.705Z,13.66
2018-03-14T16:29:41.285Z,13.50
2018-03-14T16:32:09.537Z,13.47
2018-03-14T16:34:37.713Z,13.38
2018-03-14T16:37:05.896Z,13.38
2018-03-14T16:39:34.103Z,13.35
2018-03-14T16:42:02.280Z,13.30
2018-03-14T16:44:30.516Z,13.30
2018-03-14T16:46:58.793Z,13.24
2018-03-14T16:49:26.985Z,13.15
2018-03-14T16:51:55.154Z,13.18
2018-03-14T16:54:23.419Z,13.08
2018-03-14T16:56:51.618Z,13.05
2018-03-14T16:59:19.803Z,13.01
2018-03-14T17:01:47.960Z,12.97
2018-03-14T17:04:16.916Z,12.96
2018-03-14T17:06:45.114Z,12.88
2018-03-14T17:09:13.299Z,12.84
2018-03-14T17:11:41.563Z,12.80
2018-03-14T17:14:09.729Z,12.76
2018-03-14T17:16:37.910Z,12.68
2018-03-14T17:19:06.103Z,12.70
2018-03-14T17:21:34.302Z,12.65
2018-03-14T17:24:02.479Z,12.64
2018-03-14T17:26:30.714Z,12.60
2018-03-14T17:28:58.889Z,12.58
2018-03-14T17:31:27.063Z,12.54
2018-03-14T17:33:55.421Z,12.51
2018-03-14T17:36:23.628Z,12.52
2018-03-14T17:38:51.892Z,12.48
2018-03-14T17:41:20.050Z,12.43
2018-03-14T17:43:48.250Z,12.36
2018-03-14T17:46:16.433Z,12.34
2018-03-14T17:48:44.603Z,12.31
2018-03-14T17:51:12.865Z,12.30
2018-03-14T17:53:41.033Z,12.25
2018-03-14T17:56:09.849Z,12.25
2018-03-14T17:58:38.123Z,12.22
2018-03-14T18:01:06.366Z,12.16
2018-03-14T18:03:34.558Z,12.16
2018-03-14T18:06:02.833Z,12.12
2018-03-14T18:08:31.004Z,12.09
2018-03-14T18:10:59.166Z,12.09
2018-03-14T18:13:27.331Z,12.07
2018-03-14T18:15:55.507Z,12.07
2018-03-14T18:18:23.718Z,12.05
2018-03-14T18:20:51.889Z,11.81
2018-03-14T18:23:20.157Z,11.91
2018-03-14T18:25:48.355Z,12.03
2018-03-14T18:28:16.574Z,12.08
2018-03-14T18:30:45.527Z,11.93
2018-03-14T18:33:13.756Z,11.95
2018-03-14T18:35:41.935Z,11.84
2018-03-14T18:38:10.160Z,11.81
2018-03-14T18:40:39.121Z,11.69
2018-03-14T18:43:07.310Z,11.69
2018-03-14T18:45:35.474Z,11.71
2018-03-14T18:48:03.780Z,11.70
2018-03-14T18:50:32.716Z,11.78
2018-03-14T18:53:01.224Z,11.50
2018-03-14T18:55:30.201Z,11.44
2018-03-14T18:57:58.359Z,11.43
2018-03-14T19:00:27.305Z,11.44
2018-03-14T19:02:55.492Z,11.25
2018-03-14T19:05:23.696Z,11.22
2018-03-14T19:07:52.632Z,11.14
2018-03-14T19:10:20.824Z,10.82
2018-03-14T19:12:49.000Z,10.71
2018-03-14T19:15:17.191Z,10.70
2018-03-14T19:17:46.125Z,10.56
2018-03-14T19:20:14.334Z,10.49
2018-03-14T19:22:42.509Z,10.48
2018-03-14T19:25:11.597Z,10.48
2018-03-14T19:27:39.825Z,10.44
2018-03-14T19:30:07.959Z,10.43
2018-03-14T19:32:36.129Z,10.43
2018-03-14T19:35:04.295Z,10.42
2018-03-14T19:37:32.486Z,10.43
2018-03-14T19:40:00.670Z,10.33
2018-03-14T19:42:28.849Z,10.21
2018-03-14T19:44:57.032Z,10.22
2018-03-14T19:47:25.986Z,10.17
2018-03-14T19:49:54.174Z,10.14
2018-03-14T19:52:22.411Z,10.12
2018-03-14T19:54:50.585Z,10.09
2018-03-14T19:57:18.750Z,10.15
2018-03-14T19:59:46.926Z,10.19
2018-03-14T20:02:15.240Z,10.24
2018-03-14T20:04:43.414Z,10.27
2018-03-14T20:07:11.600Z,10.12
2018-03-14T20:09:39.774Z,9.91
2018-03-14T20:12:07.933Z,9.93
2018-03-14T20:14:36.095Z,9.88
2018-03-14T20:17:04.256Z,9.87
2018-03-14T20:19:33.419Z,9.81
2018-03-14T20:22:01.603Z,9.68
2018-03-14T20:24:30.550Z,9.66
2018-03-14T20:26:58.722Z,9.63
2018-03-14T20:29:26.904Z,9.62
2018-03-14T20:31:55.074Z,9.65
2018-03-14T20:34:23.282Z,9.58
2018-03-14T20:36:51.450Z,9.58
2018-03-14T20:39:19.661Z,9.54
2018-03-14T20:41:47.820Z,9.55
2018-03-14T20:44:16.753Z,9.59
2018-03-14T20:46:44.914Z,9.52
2018-03-14T20:49:13.087Z,9.53
2018-03-14T20:51:41.278Z,9.43
2018-03-14T20:54:09.472Z,9.38
2018-03-14T20:56:38.388Z,9.37
2018-03-14T20:59:06.555Z,9.29
2018-03-14T21:01:34.729Z,9.29
2018-03-14T21:04:02.910Z,9.41
2018-03-14T21:06:31.062Z,9.38
2018-03-14T21:08:59.238Z,9.35
2018-03-14T21:11:27.455Z,9.32
2018-03-14T21:13:56.391Z,9.34
2018-03-14T21:16:24.565Z,9.30
2018-03-14T21:18:52.739Z,9.20
2018-03-14T21:21:20.911Z,9.22
2018-03-14T21:23:49.062Z,9.33
2018-03-14T21:26:17.229Z,9.30
2018-03-14T21:28:45.395Z,9.24
2018-03-14T21:31:14.379Z,9.30
2018-03-14T21:33:42.518Z,9.24
2018-03-14T21:36:10.678Z,9.27
2018-03-14T21:38:38.850Z,9.23
2018-03-14T21:41:07.040Z,9.17
2018-03-14T21:43:35.199Z,9.22
2018-03-14T21:46:03.368Z,9.20
2018-03-14T21:48:31.526Z,9.22
2018-03-14T21:50:59.700Z,9.21
2018-03-14T21:53:27.876Z,9.18
2018-03-14T21:55:56.036Z,9.21
2018-03-14T21:58:24.224Z,9.14
2018-03-14T22:00:52.385Z,9.17
2018-03-14T22:03:20.557Z,9.20
2018-03-14T22:05:49.497Z,9.18
2018-03-14T22:08:17.678Z,9.08
2018-03-14T22:10:45.837Z,9.06
2018-03-14T22:13:14.012Z,9.20
2018-03-14T22:15:42.174Z,9.14
2018-03-14T22:18:10.336Z,8.99
2018-03-14T22:20:38.488Z,8.95
2018-03-14T22:23:07.416Z,8.95
2018-03-14T22:25:35.604Z,8.95
2018-03-14T22:28:03.776Z,8.94
2018-03-14T22:30:31.942Z,8.97
2018-03-14T22:33:00.110Z,8.91
2018-03-14T22:35:28.271Z,8.89
2018-03-14T22:37:56.448Z,8.85
2018-03-14T22:40:24.812Z,8.85
2018-03-14T22:42:53.775Z,8.88
2018-03-14T22:45:21.934Z,8.90
2018-03-14T22:47:50.100Z,8.75
2018-03-14T22:50:18.276Z,8.75
2018-03-14T22:52:46.474Z,8.72
2018-03-14T22:55:14.644Z,8.78
2018-03-14T22:57:42.831Z,8.71
2018-03-14T23:00:11.021Z,8.70
2018-03-14T23:02:39.956Z,8.68
2018-03-14T23:05:08.221Z,8.68
2018-03-14T23:07:36.418Z,8.65
2018-03-14T23:10:04.640Z,8.67
2018-03-14T23:12:33.675Z,8.60
2018-03-14T23:15:02.027Z,8.56
2018-03-14T23:17:30.193Z,8.59
2018-03-14T23:19:59.127Z,8.58
2018-03-14T23:22:27.289Z,8.61
2018-03-14T23:24:55.445Z,8.58
2018-03-14T23:27:23.631Z,8.53
2018-03-14T23:29:51.917Z,8.54
2018-03-14T23:32:20.071Z,8.52
2018-03-14T23:34:48.234Z,8.48
2018-03-14T23:37:17.176Z,8.46
2018-03-14T23:39:45.342Z,8.50
2018-03-14T23:42:13.509Z,8.52
2018-03-14T23:44:41.666Z,8.54
2018-03-14T23:47:09.824Z,8.55
2018-03-14T23:49:38.794Z,8.55
2018-03-14T23:52:06.967Z,8.53
2018-03-14T23:54:35.143Z,8.58
2018-03-14T23:57:03.318Z,8.60
2018-03-14T23:59:31.484Z,8.55
